createdAt,value
2018-09-09T00:11:38.241Z,14.1
2018-09-09T00:26:41.825Z,14
2018-09-09T00:42:11.428Z,13.9
2018-09-09T00:57:27.445Z,13.9
2018-09-09T01:12:41.872Z,13.9
2018-09-09T01:27:57.953Z,13.8
2018-09-09T01:43:09.559Z,13.7
2018-09-09T01:58:30.079Z,13.6
2018-09-09T02:13:45.314Z,13.6
2018-09-09T02:29:01.058Z,13.6
2018-09-09T02:44:07.450Z,13.5
2018-09-09T02:59:32.653Z,13.2
2018-09-09T03:14:49.032Z,13.2
2018-09-09T03:30:03.374Z,13.2
2018-09-09T03:45:18.759Z,13.2
2018-09-09T04:00:34.452Z,13.3
2018-09-09T04:15:49.997Z,13.4
2018-09-09T04:31:05.566Z,13.4
2018-09-09T04:46:21.553Z,13.4
2018-09-09T05:01:32.291Z,13.4
2018-09-09T05:16:53.267Z,13.5
2018-09-09T05:32:09.125Z,13.5
2018-09-09T05:47:24.267Z,13.7
2018-09-09T06:02:30.368Z,14
2018-09-09T06:17:56.147Z,14.4
2018-09-09T06:33:12.351Z,14.7
2018-09-09T06:48:28.668Z,15.3
2018-09-09T07:03:34.997Z,15.8
2018-09-09T07:19:02.178Z,16.4
2018-09-09T07:34:19.738Z,16.9
2018-09-09T07:49:36.425Z,17.2
2018-09-09T08:04:40.335Z,17.9
2018-09-09T08:20:11.569Z,19.2
2018-09-09T08:35:29.751Z,19.7
2018-09-09T08:50:48.508Z,20.3
2018-09-09T09:06:07.225Z,21.1
2018-09-09T09:21:20.759Z,21.7
2018-09-09T09:36:45.410Z,22.5
2018-09-09T09:52:05.252Z,23.2
2018-09-09T10:07:25.595Z,23.4
2018-09-09T10:22:30.404Z,23.8
2018-09-09T10:38:04.175Z,24.3
2018-09-09T10:53:28.635Z,24.7
2018-09-09T11:08:49.915Z,24.9
2018-09-09T11:24:11.005Z,25.4
2018-09-09T11:39:17.519Z,25.4
2018-09-09T11:54:51.553Z,26.1
2018-09-09T12:10:16.578Z,25.7
2018-09-09T12:25:38.515Z,25.9
2018-09-09T12:41:00.624Z,26
2018-09-09T12:56:05.949Z,26
2018-09-09T13:11:40.308Z,26
2018-09-09T13:27:04.530Z,25.4
2018-09-09T13:42:26.163Z,26
2018-09-09T13:57:48.863Z,26.4
2018-09-09T14:12:54.129Z,26
2018-09-09T14:28:29.048Z,25.9
2018-09-09T14:43:55.385Z,25.6
2018-09-09T14:59:16.926Z,25.9
2018-09-09T15:14:39.834Z,26.3
2018-09-09T15:29:43.849Z,26.1
2018-09-09T15:45:17.311Z,25.6
2018-09-09T16:00:48.003Z,25.1
2018-09-09T16:16:10.449Z,24.9
2018-09-09T16:31:30.946Z,24.1
2018-09-09T16:46:51.134Z,23.6
2018-09-09T17:02:01.748Z,23.2
2018-09-09T17:17:31.343Z,22.9
2018-09-09T17:32:51.778Z,22.6
2018-09-09T17:48:11.305Z,22.1
2018-09-09T18:03:31.111Z,21.7
2018-09-09T18:18:42.890Z,21.3
2018-09-09T18:34:09.354Z,21.1
2018-09-09T18:49:27.374Z,20.5
2018-09-09T19:04:46.099Z,20.2
2018-09-09T19:20:04.657Z,20
2018-09-09T19:35:18.485Z,19.8
2018-09-09T19:50:41.270Z,19.5
2018-09-09T20:06:01.523Z,19.4
2018-09-09T20:21:17.680Z,19.1
2018-09-09T20:36:21.879Z,18.9
2018-09-09T20:51:52.981Z,18.8
2018-09-09T21:07:10.675Z,19.2
2018-09-09T21:22:29.774Z,19.1
2018-09-09T21:37:47.234Z,18.5
2018-09-09T21:52:55.070Z,18.2
2018-09-09T22:08:22.138Z,17.7
2018-09-09T22:23:39.340Z,17.2
2018-09-09T22:38:55.997Z,17
2018-09-09T22:54:13.213Z,16.7
2018-09-09T23:09:27.352Z,16.5
2018-09-09T23:24:47.714Z,16.2
2018-09-09T23:40:03.775Z,16.1
2018-09-09T23:55:20.673Z,15.9
